sensor_id;sensor_type;location;lat;lon;timestamp;temperature;humidity
76102;SHT30;64830;46.910;6.354;2023-02-01T00:01:50;2.88;77.70
76102;SHT30;64830;46.910;6.354;2023-02-01T00:04:15;2.88;77.66
76102;SHT30;64830;46.910;6.354;2023-02-01T00:06:41;2.91;77.53
76102;SHT30;64830;46.910;6.354;2023-02-01T00:09:07;2.88;77.20
76102;SHT30;64830;46.910;6.354;2023-02-01T00:11:33;2.85;77.12
76102;SHT30;64830;46.910;6.354;2023-02-01T00:13:58;2.88;77.25
76102;SHT30;64830;46.910;6.354;2023-02-01T00:16:29;2.88;77.35
76102;SHT30;64830;46.910;6.354;2023-02-01T00:19:20;2.89;77.38
76102;SHT30;64830;46.910;6.354;2023-02-01T00:21:46;2.89;77.19
76102;SHT30;64830;46.910;6.354;2023-02-01T00:24:12;2.87;77.39
76102;SHT30;64830;46.910;6.354;2023-02-01T00:26:41;2.87;77.46
76102;SHT30;64830;46.910;6.354;2023-02-01T00:29:11;2.87;77.39
76102;SHT30;64830;46.910;6.354;2023-02-01T00:31:36;2.87;77.12
76102;SHT30;64830;46.910;6.354;2023-02-01T00:34:02;2.81;77.23
76102;SHT30;64830;46.910;6.354;2023-02-01T00:36:27;2.78;77.33
76102;SHT30;64830;46.910;6.354;2023-02-01T00:38:54;2.77;77.27
76102;SHT30;64830;46.910;6.354;2023-02-01T00:41:20;2.75;77.25
76102;SHT30;64830;46.910;6.354;2023-02-01T00:43:47;2.74;77.18
76102;SHT30;64830;46.910;6.354;2023-02-01T00:46:14;2.74;77.09
76102;SHT30;64830;46.910;6.354;2023-02-01T00:48:40;2.72;77.31
76102;SHT30;64830;46.910;6.354;2023-02-01T00:51:11;2.72;77.29
76102;SHT30;64830;46.910;6.354;2023-02-01T00:53:37;2.75;77.28
76102;SHT30;64830;46.910;6.354;2023-02-01T00:56:03;2.75;77.31
76102;SHT30;64830;46.910;6.354;2023-02-01T00:58:30;2.72;77.32
76102;SHT30;64830;46.910;6.354;2023-02-01T01:01:06;2.74;77.16
76102;SHT30;64830;46.910;6.354;2023-02-01T01:03:34;2.72;76.81
76102;SHT30;64830;46.910;6.354;2023-02-01T01:06:02;2.68;76.77
76102;SHT30;64830;46.910;6.354;2023-02-01T01:08:28;2.66;76.81
76102;SHT30;64830;46.910;6.354;2023-02-01T01:10:54;2.65;76.83
76102;SHT30;64830;46.910;6.354;2023-02-01T01:13:20;2.61;76.61
76102;SHT30;64830;46.910;6.354;2023-02-01T01:15:45;2.57;76.62
76102;SHT30;64830;46.910;6.354;2023-02-01T01:18:11;2.53;76.55
76102;SHT30;64830;46.910;6.354;2023-02-01T01:20:39;2.46;76.44
76102;SHT30;64830;46.910;6.354;2023-02-01T01:23:05;2.36;76.59
76102;SHT30;64830;46.910;6.354;2023-02-01T01:25:31;2.34;76.78
76102;SHT30;64830;46.910;6.354;2023-02-01T01:27:57;2.33;76.71
76102;SHT30;64830;46.910;6.354;2023-02-01T01:30:22;2.27;76.75
76102;SHT30;64830;46.910;6.354;2023-02-01T01:32:48;2.26;76.87
76102;SHT30;64830;46.910;6.354;2023-02-01T01:35:13;2.22;76.70
76102;SHT30;64830;46.910;6.354;2023-02-01T01:37:39;2.18;76.59
76102;SHT30;64830;46.910;6.354;2023-02-01T01:40:05;2.12;76.95
76102;SHT30;64830;46.910;6.354;2023-02-01T01:42:37;2.09;76.99
76102;SHT30;64830;46.910;6.354;2023-02-01T01:45:16;2.03;77.10
76102;SHT30;64830;46.910;6.354;2023-02-01T01:47:47;1.97;76.73
76102;SHT30;64830;46.910;6.354;2023-02-01T01:50:18;1.94;76.73
76102;SHT30;64830;46.910;6.354;2023-02-01T01:52:49;1.91;76.84
76102;SHT30;64830;46.910;6.354;2023-02-01T01:55:16;1.85;77.05
76102;SHT30;64830;46.910;6.354;2023-02-01T01:57:45;1.75;77.17
76102;SHT30;64830;46.910;6.354;2023-02-01T02:00:16;1.74;77.26
76102;SHT30;64830;46.910;6.354;2023-02-01T02:02:47;1.64;77.52
76102;SHT30;64830;46.910;6.354;2023-02-01T02:05:14;1.57;77.57
76102;SHT30;64830;46.910;6.354;2023-02-01T02:07:43;1.50;77.82
76102;SHT30;64830;46.910;6.354;2023-02-01T02:10:11;1.44;77.48
76102;SHT30;64830;46.910;6.354;2023-02-01T02:12:42;1.40;77.80
76102;SHT30;64830;46.910;6.354;2023-02-01T02:15:11;1.33;77.99
76102;SHT30;64830;46.910;6.354;2023-02-01T02:20:24;1.25;77.77
76102;SHT30;64830;46.910;6.354;2023-02-01T02:45:32;0.89;77.99
76102;SHT30;64830;46.910;6.354;2023-02-01T02:48:29;0.80;78.13
76102;SHT30;64830;46.910;6.354;2023-02-01T02:51:06;0.73;78.20
76102;SHT30;64830;46.910;6.354;2023-02-01T02:54:05;0.64;78.24
76102;SHT30;64830;46.910;6.354;2023-02-01T02:56:52;0.60;78.66
76102;SHT30;64830;46.910;6.354;2023-02-01T02:59:38;0.57;78.81
76102;SHT30;64830;46.910;6.354;2023-02-01T03:02:26;0.57;79.00
76102;SHT30;64830;46.910;6.354;2023-02-01T03:05:11;0.57;79.15
76102;SHT30;64830;46.910;6.354;2023-02-01T03:08:01;0.61;79.07
76102;SHT30;64830;46.910;6.354;2023-02-01T03:19:02;0.75;79.25
76102;SHT30;64830;46.910;6.354;2023-02-01T03:21:39;0.77;79.44
76102;SHT30;64830;46.910;6.354;2023-02-01T03:24:13;0.77;79.41
76102;SHT30;64830;46.910;6.354;2023-02-01T03:26:50;0.81;79.36
76102;SHT30;64830;46.910;6.354;2023-02-01T03:29:23;0.85;79.47
76102;SHT30;64830;46.910;6.354;2023-02-01T03:31:49;0.87;79.44
76102;SHT30;64830;46.910;6.354;2023-02-01T03:34:16;0.88;79.37
76102;SHT30;64830;46.910;6.354;2023-02-01T03:37:04;0.91;79.47
76102;SHT30;64830;46.910;6.354;2023-02-01T03:39:46;0.94;79.47
76102;SHT30;64830;46.910;6.354;2023-02-01T03:42:18;0.95;79.59
76102;SHT30;64830;46.910;6.354;2023-02-01T03:44:50;0.98;79.64
76102;SHT30;64830;46.910;6.354;2023-02-01T03:47:29;1.01;79.58
76102;SHT30;64830;46.910;6.354;2023-02-01T03:49:59;1.03;79.58
76102;SHT30;64830;46.910;6.354;2023-02-01T03:53:00;1.05;79.68
76102;SHT30;64830;46.910;6.354;2023-02-01T03:55:28;1.08;79.60
76102;SHT30;64830;46.910;6.354;2023-02-01T03:58:01;1.12;79.44
76102;SHT30;64830;46.910;6.354;2023-02-01T04:00:28;1.16;79.56
76102;SHT30;64830;46.910;6.354;2023-02-01T04:02:53;1.13;79.49
76102;SHT30;64830;46.910;6.354;2023-02-01T04:05:19;1.16;79.51
76102;SHT30;64830;46.910;6.354;2023-02-01T04:07:45;1.16;79.43
76102;SHT30;64830;46.910;6.354;2023-02-01T04:10:11;1.16;79.45
76102;SHT30;64830;46.910;6.354;2023-02-01T04:12:37;1.18;79.56
76102;SHT30;64830;46.910;6.354;2023-02-01T04:15:03;1.19;79.31
76102;SHT30;64830;46.910;6.354;2023-02-01T04:17:29;1.19;79.19
76102;SHT30;64830;46.910;6.354;2023-02-01T04:19:54;1.15;79.31
76102;SHT30;64830;46.910;6.354;2023-02-01T04:22:19;1.18;79.34
76102;SHT30;64830;46.910;6.354;2023-02-01T04:24:45;1.16;79.38
76102;SHT30;64830;46.910;6.354;2023-02-01T04:27:10;1.16;79.59
76102;SHT30;64830;46.910;6.354;2023-02-01T04:29:36;1.18;79.64
76102;SHT30;64830;46.910;6.354;2023-02-01T04:32:01;1.18;79.71
76102;SHT30;64830;46.910;6.354;2023-02-01T04:34:26;1.16;79.80
76102;SHT30;64830;46.910;6.354;2023-02-01T04:36:52;1.18;79.91
76102;SHT30;64830;46.910;6.354;2023-02-01T04:39:17;1.20;79.84
76102;SHT30;64830;46.910;6.354;2023-02-01T04:41:43;1.20;79.97
76102;SHT30;64830;46.910;6.354;2023-02-01T04:44:17;1.22;79.85
76102;SHT30;64830;46.910;6.354;2023-02-01T04:46:45;1.19;79.88
76102;SHT30;64830;46.910;6.354;2023-02-01T04:49:12;1.22;79.96
76102;SHT30;64830;46.910;6.354;2023-02-01T04:51:37;1.22;79.99
76102;SHT30;64830;46.910;6.354;2023-02-01T04:54:03;1.23;80.06
76102;SHT30;64830;46.910;6.354;2023-02-01T04:56:29;1.22;80.05
76102;SHT30;64830;46.910;6.354;2023-02-01T04:58:55;1.19;80.15
76102;SHT30;64830;46.910;6.354;2023-02-01T05:01:21;1.22;80.27
76102;SHT30;64830;46.910;6.354;2023-02-01T05:03:47;1.20;80.35
76102;SHT30;64830;46.910;6.354;2023-02-01T05:06:12;1.19;80.41
76102;SHT30;64830;46.910;6.354;2023-02-01T05:08:37;1.19;80.57
76102;SHT30;64830;46.910;6.354;2023-02-01T05:11:03;1.19;80.61
76102;SHT30;64830;46.910;6.354;2023-02-01T05:13:29;1.18;80.55
76102;SHT30;64830;46.910;6.354;2023-02-01T05:16:13;1.19;80.82
76102;SHT30;64830;46.910;6.354;2023-02-01T05:18:39;1.19;80.90
76102;SHT30;64830;46.910;6.354;2023-02-01T05:21:04;1.18;81.11
76102;SHT30;64830;46.910;6.354;2023-02-01T05:23:30;1.16;81.14
76102;SHT30;64830;46.910;6.354;2023-02-01T05:25:59;1.18;81.37
76102;SHT30;64830;46.910;6.354;2023-02-01T05:28:26;1.18;81.36
76102;SHT30;64830;46.910;6.354;2023-02-01T05:30:52;1.19;81.48
76102;SHT30;64830;46.910;6.354;2023-02-01T05:33:17;1.20;81.56
76102;SHT30;64830;46.910;6.354;2023-02-01T05:35:42;1.22;81.45
76102;SHT30;64830;46.910;6.354;2023-02-01T05:38:09;1.25;81.49
76102;SHT30;64830;46.910;6.354;2023-02-01T05:40:34;1.25;81.54
76102;SHT30;64830;46.910;6.354;2023-02-01T05:42:59;1.26;81.53
76102;SHT30;64830;46.910;6.354;2023-02-01T05:45:25;1.25;81.83
76102;SHT30;64830;46.910;6.354;2023-02-01T05:47:50;1.22;81.72
76102;SHT30;64830;46.910;6.354;2023-02-01T05:50:16;1.25;82.01
76102;SHT30;64830;46.910;6.354;2023-02-01T05:52:42;1.20;82.04
76102;SHT30;64830;46.910;6.354;2023-02-01T05:55:07;1.20;82.20
76102;SHT30;64830;46.910;6.354;2023-02-01T05:57:33;1.22;82.40
76102;SHT30;64830;46.910;6.354;2023-02-01T05:59:58;1.18;82.32
76102;SHT30;64830;46.910;6.354;2023-02-01T06:02:24;1.16;82.19
76102;SHT30;64830;46.910;6.354;2023-02-01T06:04:50;1.18;82.21
76102;SHT30;64830;46.910;6.354;2023-02-01T06:07:16;1.20;82.23
76102;SHT30;64830;46.910;6.354;2023-02-01T06:09:42;1.22;82.26
76102;SHT30;64830;46.910;6.354;2023-02-01T06:12:07;1.20;82.21
76102;SHT30;64830;46.910;6.354;2023-02-01T06:14:33;1.23;82.19
76102;SHT30;64830;46.910;6.354;2023-02-01T06:16:58;1.25;82.22
76102;SHT30;64830;46.910;6.354;2023-02-01T06:19:24;1.28;82.21
76102;SHT30;64830;46.910;6.354;2023-02-01T06:21:49;1.30;82.18
76102;SHT30;64830;46.910;6.354;2023-02-01T06:24:15;1.29;82.36
76102;SHT30;64830;46.910;6.354;2023-02-01T06:26:40;1.32;82.26
76102;SHT30;64830;46.910;6.354;2023-02-01T06:29:06;1.32;82.32
76102;SHT30;64830;46.910;6.354;2023-02-01T06:31:33;1.32;82.35
76102;SHT30;64830;46.910;6.354;2023-02-01T06:33:58;1.32;82.42
76102;SHT30;64830;46.910;6.354;2023-02-01T06:36:23;1.33;82.31
76102;SHT30;64830;46.910;6.354;2023-02-01T06:38:49;1.33;82.34
76102;SHT30;64830;46.910;6.354;2023-02-01T06:41:14;1.33;82.47
76102;SHT30;64830;46.910;6.354;2023-02-01T06:43:40;1.32;82.64
76102;SHT30;64830;46.910;6.354;2023-02-01T06:46:07;1.33;82.62
76102;SHT30;64830;46.910;6.354;2023-02-01T06:48:33;1.35;82.73
76102;SHT30;64830;46.910;6.354;2023-02-01T06:50:59;1.36;82.85
76102;SHT30;64830;46.910;6.354;2023-02-01T06:53:25;1.37;82.93
76102;SHT30;64830;46.910;6.354;2023-02-01T06:56:01;1.37;82.89
76102;SHT30;64830;46.910;6.354;2023-02-01T06:58:32;1.40;82.99
76102;SHT30;64830;46.910;6.354;2023-02-01T07:01:03;1.43;83.07
76102;SHT30;64830;46.910;6.354;2023-02-01T07:03:29;1.44;83.05
76102;SHT30;64830;46.910;6.354;2023-02-01T07:05:56;1.43;83.11
76102;SHT30;64830;46.910;6.354;2023-02-01T07:08:24;1.47;83.15
76102;SHT30;64830;46.910;6.354;2023-02-01T07:10:49;1.44;83.13
76102;SHT30;64830;46.910;6.354;2023-02-01T07:13:15;1.47;83.23
76102;SHT30;64830;46.910;6.354;2023-02-01T07:15:40;1.46;83.34
76102;SHT30;64830;46.910;6.354;2023-02-01T07:18:05;1.44;83.44
76102;SHT30;64830;46.910;6.354;2023-02-01T07:20:31;1.46;83.61
76102;SHT30;64830;46.910;6.354;2023-02-01T07:22:56;1.44;83.68
76102;SHT30;64830;46.910;6.354;2023-02-01T07:25:23;1.47;83.82
76102;SHT30;64830;46.910;6.354;2023-02-01T07:27:48;1.51;83.75
76102;SHT30;64830;46.910;6.354;2023-02-01T07:30:14;1.56;83.99
76102;SHT30;64830;46.910;6.354;2023-02-01T07:32:39;1.56;84.04
76102;SHT30;64830;46.910;6.354;2023-02-01T07:35:05;1.60;84.30
76102;SHT30;64830;46.910;6.354;2023-02-01T07:37:30;1.58;84.31
76102;SHT30;64830;46.910;6.354;2023-02-01T07:39:56;1.64;84.44
76102;SHT30;64830;46.910;6.354;2023-02-01T07:42:21;1.65;84.34
76102;SHT30;64830;46.910;6.354;2023-02-01T07:44:47;1.67;84.33
76102;SHT30;64830;46.910;6.354;2023-02-01T07:47:12;1.68;84.31
76102;SHT30;64830;46.910;6.354;2023-02-01T07:49:38;1.73;84.20
76102;SHT30;64830;46.910;6.354;2023-02-01T07:52:03;1.77;84.35
76102;SHT30;64830;46.910;6.354;2023-02-01T07:54:28;1.79;84.27
76102;SHT30;64830;46.910;6.354;2023-02-01T07:56:54;1.81;84.30
76102;SHT30;64830;46.910;6.354;2023-02-01T07:59:19;1.86;84.26
76102;SHT30;64830;46.910;6.354;2023-02-01T08:01:45;1.91;84.20
76102;SHT30;64830;46.910;6.354;2023-02-01T08:04:11;1.95;84.24
76102;SHT30;64830;46.910;6.354;2023-02-01T08:06:37;1.99;84.27
76102;SHT30;64830;46.910;6.354;2023-02-01T08:09:04;2.06;84.39
76102;SHT30;64830;46.910;6.354;2023-02-01T08:11:30;2.09;84.36
76102;SHT30;64830;46.910;6.354;2023-02-01T08:13:57;2.08;84.39
76102;SHT30;64830;46.910;6.354;2023-02-01T08:16:23;2.10;84.48
76102;SHT30;64830;46.910;6.354;2023-02-01T08:18:50;2.06;84.48
76102;SHT30;64830;46.910;6.354;2023-02-01T08:21:21;2.09;84.34
76102;SHT30;64830;46.910;6.354;2023-02-01T08:23:47;2.10;84.30
76102;SHT30;64830;46.910;6.354;2023-02-01T08:26:16;2.15;84.35
76102;SHT30;64830;46.910;6.354;2023-02-01T08:28:51;2.15;84.25
76102;SHT30;64830;46.910;6.354;2023-02-01T08:31:19;2.20;84.20
76102;SHT30;64830;46.910;6.354;2023-02-01T08:33:49;2.29;84.15
76102;SHT30;64830;46.910;6.354;2023-02-01T08:36:14;2.33;84.07
76102;SHT30;64830;46.910;6.354;2023-02-01T08:38:40;2.36;84.14
76102;SHT30;64830;46.910;6.354;2023-02-01T08:41:14;2.43;84.10
76102;SHT30;64830;46.910;6.354;2023-02-01T08:43:40;2.47;84.17
76102;SHT30;64830;46.910;6.354;2023-02-01T08:46:06;2.54;84.17
76102;SHT30;64830;46.910;6.354;2023-02-01T08:48:33;2.64;84.09
76102;SHT30;64830;46.910;6.354;2023-02-01T08:51:04;2.70;83.95
76102;SHT30;64830;46.910;6.354;2023-02-01T08:53:29;2.77;83.78
76102;SHT30;64830;46.910;6.354;2023-02-01T08:55:55;2.78;83.94
76102;SHT30;64830;46.910;6.354;2023-02-01T08:58:20;2.78;83.99
76102;SHT30;64830;46.910;6.354;2023-02-01T09:00:47;2.77;83.98
76102;SHT30;64830;46.910;6.354;2023-02-01T09:03:13;2.77;84.25
76102;SHT30;64830;46.910;6.354;2023-02-01T09:05:38;2.75;84.23
76102;SHT30;64830;46.910;6.354;2023-02-01T09:08:04;2.77;84.24
76102;SHT30;64830;46.910;6.354;2023-02-01T09:10:30;2.80;84.36
76102;SHT30;64830;46.910;6.354;2023-02-01T09:12:55;2.82;84.21
76102;SHT30;64830;46.910;6.354;2023-02-01T09:15:21;2.87;84.18
76102;SHT30;64830;46.910;6.354;2023-02-01T09:17:46;2.84;84.18
76102;SHT30;64830;46.910;6.354;2023-02-01T09:20:12;2.84;84.43
76102;SHT30;64830;46.910;6.354;2023-02-01T09:22:39;2.77;84.42
76102;SHT30;64830;46.910;6.354;2023-02-01T09:25:05;2.81;84.55
76102;SHT30;64830;46.910;6.354;2023-02-01T09:27:30;2.80;84.38
76102;SHT30;64830;46.910;6.354;2023-02-01T09:29:56;2.80;84.50
76102;SHT30;64830;46.910;6.354;2023-02-01T09:32:22;2.80;84.40
76102;SHT30;64830;46.910;6.354;2023-02-01T09:34:52;2.78;84.86
76102;SHT30;64830;46.910;6.354;2023-02-01T09:37:18;2.78;85.05
76102;SHT30;64830;46.910;6.354;2023-02-01T09:39:43;2.77;84.60
76102;SHT30;64830;46.910;6.354;2023-02-01T09:42:37;2.81;84.66
76102;SHT30;64830;46.910;6.354;2023-02-01T09:45:20;2.84;85.38
76102;SHT30;64830;46.910;6.354;2023-02-01T09:47:57;2.84;85.33
76102;SHT30;64830;46.910;6.354;2023-02-01T09:50:34;2.91;85.32
76102;SHT30;64830;46.910;6.354;2023-02-01T09:53:14;2.93;85.38
76102;SHT30;64830;46.910;6.354;2023-02-01T09:55:47;2.98;85.64
76102;SHT30;64830;46.910;6.354;2023-02-01T09:58:17;2.98;85.53
76102;SHT30;64830;46.910;6.354;2023-02-01T10:00:52;2.98;85.42
76102;SHT30;64830;46.910;6.354;2023-02-01T10:03:18;3.03;84.98
76102;SHT30;64830;46.910;6.354;2023-02-01T10:11:35;2.99;85.37
76102;SHT30;64830;46.910;6.354;2023-02-01T10:20:11;2.95;85.29
76102;SHT30;64830;46.910;6.354;2023-02-01T10:28:27;2.93;85.97
76102;SHT30;64830;46.910;6.354;2023-02-01T10:30:56;2.91;86.32
76102;SHT30;64830;46.910;6.354;2023-02-01T10:33:25;2.87;86.46
76102;SHT30;64830;46.910;6.354;2023-02-01T10:35:59;2.87;86.32
76102;SHT30;64830;46.910;6.354;2023-02-01T10:38:28;2.78;87.11
76102;SHT30;64830;46.910;6.354;2023-02-01T10:40:58;2.78;86.74
76102;SHT30;64830;46.910;6.354;2023-02-01T10:43:26;2.77;87.01
76102;SHT30;64830;46.910;6.354;2023-02-01T10:45:51;2.82;86.63
76102;SHT30;64830;46.910;6.354;2023-02-01T10:48:16;2.84;86.50
76102;SHT30;64830;46.910;6.354;2023-02-01T10:51:00;2.84;86.85
76102;SHT30;64830;46.910;6.354;2023-02-01T10:56:08;2.89;86.66
76102;SHT30;64830;46.910;6.354;2023-02-01T10:58:36;2.85;87.47
76102;SHT30;64830;46.910;6.354;2023-02-01T11:01:08;2.82;87.16
76102;SHT30;64830;46.910;6.354;2023-02-01T11:03:51;2.82;87.22
76102;SHT30;64830;46.910;6.354;2023-02-01T11:06:53;2.88;87.51
76102;SHT30;64830;46.910;6.354;2023-02-01T11:09:21;2.93;87.31
76102;SHT30;64830;46.910;6.354;2023-02-01T11:14:39;3.12;86.75
76102;SHT30;64830;46.910;6.354;2023-02-01T11:17:21;3.16;86.36
76102;SHT30;64830;46.910;6.354;2023-02-01T11:20:00;3.22;86.37
76102;SHT30;64830;46.910;6.354;2023-02-01T11:22:27;3.26;86.07
76102;SHT30;64830;46.910;6.354;2023-02-01T11:24:54;3.30;86.14
76102;SHT30;64830;46.910;6.354;2023-02-01T11:27:21;3.36;85.71
76102;SHT30;64830;46.910;6.354;2023-02-01T11:29:50;3.31;85.22
76102;SHT30;64830;46.910;6.354;2023-02-01T11:32:18;3.22;85.50
76102;SHT30;64830;46.910;6.354;2023-02-01T11:34:55;3.17;85.85
76102;SHT30;64830;46.910;6.354;2023-02-01T11:37:26;3.08;85.93
76102;SHT30;64830;46.910;6.354;2023-02-01T11:39:55;3.13;85.93
76102;SHT30;64830;46.910;6.354;2023-02-01T11:42:21;3.15;86.08
76102;SHT30;64830;46.910;6.354;2023-02-01T11:44:47;3.17;85.97
76102;SHT30;64830;46.910;6.354;2023-02-01T11:47:19;3.24;85.78
76102;SHT30;64830;46.910;6.354;2023-02-01T11:49:46;3.34;85.66
76102;SHT30;64830;46.910;6.354;2023-02-01T11:52:22;3.44;85.26
76102;SHT30;64830;46.910;6.354;2023-02-01T11:56:08;3.58;85.10
76102;SHT30;64830;46.910;6.354;2023-02-01T12:01:04;3.75;83.35
76102;SHT30;64830;46.910;6.354;2023-02-01T12:06:51;3.47;83.78
76102;SHT30;64830;46.910;6.354;2023-02-01T12:31:15;4.16;81.77
76102;SHT30;64830;46.910;6.354;2023-02-01T12:33:55;4.11;80.62
76102;SHT30;64830;46.910;6.354;2023-02-01T12:44:37;4.03;81.67
76102;SHT30;64830;46.910;6.354;2023-02-01T12:47:20;4.03;79.30
76102;SHT30;64830;46.910;6.354;2023-02-01T12:49:54;3.95;79.44
76102;SHT30;64830;46.910;6.354;2023-02-01T12:55:22;4.10;80.70
76102;SHT30;64830;46.910;6.354;2023-02-01T12:58:14;4.11;80.29
76102;SHT30;64830;46.910;6.354;2023-02-01T13:00:50;4.07;79.75
76102;SHT30;64830;46.910;6.354;2023-02-01T13:05:50;4.09;79.89
76102;SHT30;64830;46.910;6.354;2023-02-01T13:08:38;4.06;80.02
76102;SHT30;64830;46.910;6.354;2023-02-01T13:11:19;4.13;80.48
76102;SHT30;64830;46.910;6.354;2023-02-01T13:16:40;3.92;80.20
76102;SHT30;64830;46.910;6.354;2023-02-01T13:21:39;3.83;80.63
76102;SHT30;64830;46.910;6.354;2023-02-01T13:26:54;3.77;80.63
76102;SHT30;64830;46.910;6.354;2023-02-01T13:29:22;3.71;80.70
76102;SHT30;64830;46.910;6.354;2023-02-01T13:32:00;3.65;80.88
76102;SHT30;64830;46.910;6.354;2023-02-01T13:40:34;3.46;81.49
76102;SHT30;64830;46.910;6.354;2023-02-01T13:45:36;3.37;81.93
76102;SHT30;64830;46.910;6.354;2023-02-01T13:48:05;3.34;82.09
76102;SHT30;64830;46.910;6.354;2023-02-01T13:50:35;3.30;82.39
76102;SHT30;64830;46.910;6.354;2023-02-01T13:53:17;3.30;82.33
76102;SHT30;64830;46.910;6.354;2023-02-01T13:55:45;3.31;82.61
76102;SHT30;64830;46.910;6.354;2023-02-01T13:58:20;3.27;82.66
76102;SHT30;64830;46.910;6.354;2023-02-01T14:00:47;3.24;82.98
76102;SHT30;64830;46.910;6.354;2023-02-01T14:03:46;3.33;82.80
76102;SHT30;64830;46.910;6.354;2023-02-01T14:06:40;3.34;82.71
76102;SHT30;64830;46.910;6.354;2023-02-01T14:09:19;3.38;82.70
76102;SHT30;64830;46.910;6.354;2023-02-01T14:11:55;3.41;82.64
76102;SHT30;64830;46.910;6.354;2023-02-01T14:19:29;3.41;82.12
76102;SHT30;64830;46.910;6.354;2023-02-01T14:21:56;3.41;82.24
76102;SHT30;64830;46.910;6.354;2023-02-01T14:24:33;3.37;82.13
76102;SHT30;64830;46.910;6.354;2023-02-01T14:27:01;3.31;81.81
76102;SHT30;64830;46.910;6.354;2023-02-01T14:29:43;3.20;81.99
76102;SHT30;64830;46.910;6.354;2023-02-01T14:32:18;3.13;82.24
76102;SHT30;64830;46.910;6.354;2023-02-01T14:44:44;3.06;82.77
76102;SHT30;64830;46.910;6.354;2023-02-01T14:49:42;3.09;83.18
76102;SHT30;64830;46.910;6.354;2023-02-01T14:52:15;3.12;82.94
76102;SHT30;64830;46.910;6.354;2023-02-01T14:54:54;3.19;82.82
76102;SHT30;64830;46.910;6.354;2023-02-01T14:57:21;3.29;82.47
76102;SHT30;64830;46.910;6.354;2023-02-01T14:59:57;3.30;82.07
76102;SHT30;64830;46.910;6.354;2023-02-01T15:02:26;3.30;82.01
76102;SHT30;64830;46.910;6.354;2023-02-01T15:04:56;3.30;81.96
76102;SHT30;64830;46.910;6.354;2023-02-01T15:07:24;3.36;81.86
76102;SHT30;64830;46.910;6.354;2023-02-01T15:09:52;3.38;81.99
76102;SHT30;64830;46.910;6.354;2023-02-01T15:12:23;3.43;81.88
76102;SHT30;64830;46.910;6.354;2023-02-01T15:15:17;3.43;81.48
76102;SHT30;64830;46.910;6.354;2023-02-01T15:17:55;3.38;81.53
76102;SHT30;64830;46.910;6.354;2023-02-01T15:20:28;3.37;81.72
76102;SHT30;64830;46.910;6.354;2023-02-01T15:23:03;3.40;81.72
76102;SHT30;64830;46.910;6.354;2023-02-01T15:25:33;3.34;81.53
76102;SHT30;64830;46.910;6.354;2023-02-01T15:27:59;3.31;81.55
76102;SHT30;64830;46.910;6.354;2023-02-01T15:30:29;3.26;81.78
76102;SHT30;64830;46.910;6.354;2023-02-01T15:33:13;3.17;81.76
76102;SHT30;64830;46.910;6.354;2023-02-01T15:41:14;2.99;82.21
76102;SHT30;64830;46.910;6.354;2023-02-01T15:46:29;2.93;82.70
76102;SHT30;64830;46.910;6.354;2023-02-01T15:48:56;2.93;82.71
76102;SHT30;64830;46.910;6.354;2023-02-01T15:51:24;2.93;82.76
76102;SHT30;64830;46.910;6.354;2023-02-01T15:54:00;2.88;83.09
76102;SHT30;64830;46.910;6.354;2023-02-01T15:56:37;2.91;83.12
76102;SHT30;64830;46.910;6.354;2023-02-01T15:59:19;2.89;83.49
76102;SHT30;64830;46.910;6.354;2023-02-01T16:01:46;2.88;83.29
76102;SHT30;64830;46.910;6.354;2023-02-01T16:06:52;2.93;83.35
76102;SHT30;64830;46.910;6.354;2023-02-01T16:09:48;2.96;83.24
76102;SHT30;64830;46.910;6.354;2023-02-01T16:15:08;2.95;83.32
76102;SHT30;64830;46.910;6.354;2023-02-01T16:17:34;2.91;83.54
76102;SHT30;64830;46.910;6.354;2023-02-01T16:19:59;2.92;83.79
76102;SHT30;64830;46.910;6.354;2023-02-01T16:22:25;2.89;83.76
76102;SHT30;64830;46.910;6.354;2023-02-01T16:24:50;2.88;83.67
76102;SHT30;64830;46.910;6.354;2023-02-01T16:27:16;2.88;83.72
76102;SHT30;64830;46.910;6.354;2023-02-01T16:29:41;2.85;84.04
76102;SHT30;64830;46.910;6.354;2023-02-01T16:32:18;2.80;83.91
76102;SHT30;64830;46.910;6.354;2023-02-01T16:34:45;2.77;83.91
76102;SHT30;64830;46.910;6.354;2023-02-01T16:37:13;2.77;83.91
76102;SHT30;64830;46.910;6.354;2023-02-01T16:39:40;2.81;83.70
76102;SHT30;64830;46.910;6.354;2023-02-01T16:42:13;2.78;83.86
76102;SHT30;64830;46.910;6.354;2023-02-01T16:44:39;2.74;83.81
76102;SHT30;64830;46.910;6.354;2023-02-01T16:47:13;2.71;83.93
76102;SHT30;64830;46.910;6.354;2023-02-01T16:49:41;2.64;84.06
76102;SHT30;64830;46.910;6.354;2023-02-01T16:52:16;2.61;84.14
76102;SHT30;64830;46.910;6.354;2023-02-01T16:54:42;2.61;84.19
76102;SHT30;64830;46.910;6.354;2023-02-01T16:57:18;2.64;84.14
76102;SHT30;64830;46.910;6.354;2023-02-01T16:59:44;2.60;83.94
76102;SHT30;64830;46.910;6.354;2023-02-01T17:02:18;2.58;83.92
76102;SHT30;64830;46.910;6.354;2023-02-01T17:04:44;2.62;83.90
76102;SHT30;64830;46.910;6.354;2023-02-01T17:07:14;2.65;83.78
76102;SHT30;64830;46.910;6.354;2023-02-01T17:09:40;2.65;83.59
76102;SHT30;64830;46.910;6.354;2023-02-01T17:12:06;2.68;83.59
76102;SHT30;64830;46.910;6.354;2023-02-01T17:14:35;2.70;83.54
76102;SHT30;64830;46.910;6.354;2023-02-01T17:17:04;2.64;83.64
76102;SHT30;64830;46.910;6.354;2023-02-01T17:19:29;2.60;83.82
76102;SHT30;64830;46.910;6.354;2023-02-01T17:21:56;2.58;84.08
76102;SHT30;64830;46.910;6.354;2023-02-01T17:24:26;2.55;84.12
76102;SHT30;64830;46.910;6.354;2023-02-01T17:26:51;2.60;84.12
76102;SHT30;64830;46.910;6.354;2023-02-01T17:29:17;2.57;83.99
76102;SHT30;64830;46.910;6.354;2023-02-01T17:31:47;2.58;83.88
76102;SHT30;64830;46.910;6.354;2023-02-01T17:34:14;2.58;83.81
76102;SHT30;64830;46.910;6.354;2023-02-01T17:36:41;2.60;83.70
76102;SHT30;64830;46.910;6.354;2023-02-01T17:39:08;2.62;83.70
76102;SHT30;64830;46.910;6.354;2023-02-01T17:41:35;2.64;83.40
76102;SHT30;64830;46.910;6.354;2023-02-01T17:44:01;2.66;83.44
76102;SHT30;64830;46.910;6.354;2023-02-01T17:46:27;2.66;83.12
76102;SHT30;64830;46.910;6.354;2023-02-01T17:48:54;2.68;83.21
76102;SHT30;64830;46.910;6.354;2023-02-01T17:51:23;2.68;83.06
76102;SHT30;64830;46.910;6.354;2023-02-01T17:53:49;2.72;83.02
76102;SHT30;64830;46.910;6.354;2023-02-01T17:56:19;2.72;82.99
76102;SHT30;64830;46.910;6.354;2023-02-01T17:58:45;2.74;82.78
76102;SHT30;64830;46.910;6.354;2023-02-01T18:01:22;2.70;82.33
76102;SHT30;64830;46.910;6.354;2023-02-01T18:03:48;2.68;82.48
76102;SHT30;64830;46.910;6.354;2023-02-01T18:06:17;2.70;82.36
76102;SHT30;64830;46.910;6.354;2023-02-01T18:08:43;2.68;82.15
76102;SHT30;64830;46.910;6.354;2023-02-01T18:11:15;2.66;82.06
76102;SHT30;64830;46.910;6.354;2023-02-01T18:13:41;2.65;82.21
76102;SHT30;64830;46.910;6.354;2023-02-01T18:16:21;2.64;82.22
76102;SHT30;64830;46.910;6.354;2023-02-01T18:18:47;2.64;82.20
76102;SHT30;64830;46.910;6.354;2023-02-01T18:21:14;2.64;82.23
76102;SHT30;64830;46.910;6.354;2023-02-01T18:23:42;2.61;82.05
76102;SHT30;64830;46.910;6.354;2023-02-01T18:26:10;2.60;82.05
76102;SHT30;64830;46.910;6.354;2023-02-01T18:28:36;2.55;82.05